createdAt,value
2017-11-20T00:01:43.108Z,39.15
2017-11-20T00:04:11.963Z,37.10
2017-11-20T00:06:40.042Z,39.83
2017-11-20T00:09:08.226Z,39.67
2017-11-20T00:11:36.293Z,36.10
2017-11-20T00:14:04.355Z,40.40
2017-11-20T00:16:32.497Z,40.25
2017-11-20T00:19:00.603Z,39.67
2017-11-20T00:21:28.694Z,41.80
2017-11-20T00:23:56.798Z,36.35
2017-11-20T00:26:24.871Z,39.72
2017-11-20T00:28:52.932Z,38.88
2017-11-20T00:31:22.035Z,39.45
2017-11-20T00:33:50.893Z,39.15
2017-11-20T00:36:18.954Z,39.30
2017-11-20T00:38:47.069Z,39.97
2017-11-20T00:41:15.887Z,39.03
2017-11-20T00:43:44.773Z,38.30
2017-11-20T00:46:12.833Z,38.67
2017-11-20T00:48:40.860Z,39.13
2017-11-20T00:51:08.905Z,37.75
2017-11-20T00:53:36.936Z,38.40
2017-11-20T00:56:05.740Z,37.63
2017-11-20T00:58:33.770Z,39.00
2017-11-20T01:01:01.782Z,38.63
2017-11-20T01:03:29.794Z,38.65
2017-11-20T01:05:57.831Z,37.10
2017-11-20T01:08:25.818Z,39.05
2017-11-20T01:10:53.836Z,36.70
2017-11-20T01:13:21.841Z,36.85
2017-11-20T01:15:49.866Z,40.85
2017-11-20T01:18:21.896Z,37.50
2017-11-20T01:20:49.891Z,38.28
2017-11-20T01:23:18.265Z,37.38
2017-11-20T01:25:46.303Z,36.75
2017-11-20T01:28:14.322Z,37.00
2017-11-20T01:30:42.334Z,35.63
2017-11-20T01:33:10.347Z,37.25
2017-11-20T01:35:38.396Z,39.65
2017-11-20T01:38:06.399Z,36.58
2017-11-20T01:40:34.440Z,38.22
2017-11-20T01:43:02.447Z,37.42
2017-11-20T01:45:30.467Z,35.17
2017-11-20T01:47:58.534Z,36.40
2017-11-20T01:50:26.569Z,36.50
2017-11-20T01:52:55.357Z,38.13
2017-11-20T01:55:24.134Z,35.40
2017-11-20T01:57:52.205Z,35.42
2017-11-20T02:00:20.255Z,35.22
2017-11-20T02:03:00.411Z,37.35
2017-11-20T02:05:28.453Z,36.97
2017-11-20T02:07:56.526Z,34.90
2017-11-20T02:10:24.582Z,34.45
2017-11-20T02:12:52.633Z,37.85
2017-11-20T02:15:21.436Z,36.63
2017-11-20T02:17:49.493Z,36.35
2017-11-20T02:20:18.363Z,33.95
2017-11-20T02:22:46.462Z,35.88
2017-11-20T02:25:15.264Z,35.88
2017-11-20T02:27:43.350Z,36.67
2017-11-20T02:30:11.397Z,34.15
2017-11-20T02:32:40.285Z,34.95
2017-11-20T02:35:09.146Z,35.70
2017-11-20T02:37:37.252Z,32.45
2017-11-20T02:40:06.132Z,33.75
2017-11-20T02:42:35.022Z,31.98
2017-11-20T02:45:03.902Z,34.20
2017-11-20T02:47:32.747Z,31.57
2017-11-20T02:50:00.794Z,33.67
2017-11-20T02:52:28.867Z,33.20
2017-11-20T02:54:56.894Z,31.17
2017-11-20T02:57:25.005Z,31.70
2017-11-20T02:59:53.100Z,33.50
2017-11-20T03:02:21.138Z,31.45
2017-11-20T03:04:49.942Z,31.33
2017-11-20T03:07:17.961Z,30.05
2017-11-20T03:09:46.030Z,30.17
2017-11-20T03:12:14.126Z,30.40
2017-11-20T03:14:42.159Z,30.60
2017-11-20T03:17:10.203Z,29.60
2017-11-20T03:19:38.248Z,27.95
2017-11-20T03:22:07.083Z,30.08
2017-11-20T03:24:35.161Z,30.53
2017-11-20T03:27:03.195Z,31.45
2017-11-20T03:29:31.230Z,29.60
2017-11-20T03:31:59.305Z,30.75
2017-11-20T03:34:27.410Z,31.80
2017-11-20T03:36:55.441Z,28.85
2017-11-20T03:39:23.495Z,29.48
2017-11-20T03:41:51.551Z,28.65
2017-11-20T03:44:19.645Z,28.40
2017-11-20T03:46:47.655Z,27.45
2017-11-20T03:49:16.468Z,28.27
2017-11-20T03:51:44.483Z,29.92
2017-11-20T03:54:12.599Z,28.92
2017-11-20T03:56:40.638Z,30.33
2017-11-20T03:59:08.637Z,28.80
2017-11-20T04:01:37.388Z,29.67
2017-11-20T04:04:05.397Z,29.55
2017-11-20T04:06:33.412Z,28.42
2017-11-20T04:09:01.437Z,27.80
2017-11-20T04:11:30.234Z,27.40
2017-11-20T04:13:58.271Z,26.40
2017-11-20T04:16:26.287Z,25.85
2017-11-20T04:18:54.302Z,25.40
2017-11-20T04:21:22.323Z,25.52
2017-11-20T04:23:50.298Z,24.73
2017-11-20T04:26:18.306Z,27.55
2017-11-20T04:28:46.366Z,28.65
2017-11-20T04:31:14.480Z,27.48
2017-11-20T04:33:43.275Z,25.77
2017-11-20T04:36:12.169Z,26.23
2017-11-20T04:38:40.953Z,25.45
2017-11-20T04:41:10.506Z,26.37
2017-11-20T04:43:38.526Z,26.55
2017-11-20T04:46:07.364Z,26.73
2017-11-20T04:48:35.442Z,23.77
2017-11-20T04:51:03.614Z,24.42
2017-11-20T04:53:31.676Z,25.15
2017-11-20T04:55:59.684Z,25.02
2017-11-20T04:58:27.693Z,22.67
2017-11-20T05:00:55.700Z,25.70
2017-11-20T05:03:23.762Z,23.87
2017-11-20T05:05:51.844Z,22.50
2017-11-20T05:08:19.867Z,23.20
2017-11-20T05:10:48.635Z,23.30
2017-11-20T05:13:16.646Z,25.48
2017-11-20T05:15:44.674Z,23.08
2017-11-20T05:18:12.684Z,23.00
2017-11-20T05:20:40.717Z,20.52
2017-11-20T05:23:08.766Z,22.90
2017-11-20T05:25:36.759Z,22.87
2017-11-20T05:28:04.777Z,21.12
2017-11-20T05:30:32.771Z,24.55
2017-11-20T05:33:00.781Z,21.70
2017-11-20T05:35:29.555Z,20.98
2017-11-20T05:37:57.647Z,21.05
2017-11-20T05:40:27.314Z,20.05
2017-11-20T05:42:55.312Z,23.50
2017-11-20T05:45:24.989Z,22.15
2017-11-20T05:47:52.971Z,22.73
2017-11-20T05:50:20.974Z,20.58
2017-11-20T05:52:50.133Z,22.80
2017-11-20T05:55:18.163Z,24.37
2017-11-20T05:57:46.169Z,21.95
2017-11-20T06:00:15.042Z,30.98
2017-11-20T06:02:44.066Z,72.07
2017-11-20T06:05:13.052Z,125.50
2017-11-20T06:07:41.878Z,88.35
2017-11-20T06:10:10.769Z,57.88
2017-11-20T06:12:39.529Z,33.55
2017-11-20T06:15:07.527Z,20.92
2017-11-20T06:17:36.157Z,21.65
2017-11-20T06:20:04.195Z,21.85
2017-11-20T06:22:32.213Z,19.15
2017-11-20T06:25:00.225Z,22.65
2017-11-20T06:27:29.163Z,23.45
2017-11-20T06:29:57.298Z,21.83
2017-11-20T06:32:26.074Z,22.02
2017-11-20T06:34:54.892Z,22.92
2017-11-20T06:37:22.902Z,21.10
2017-11-20T06:39:50.961Z,21.77
2017-11-20T06:42:18.995Z,23.40
2017-11-20T06:44:47.013Z,22.50
2017-11-20T06:47:15.623Z,21.27
2017-11-20T06:49:43.702Z,21.40
2017-11-20T06:52:12.483Z,20.35
2017-11-20T06:54:40.494Z,18.87
2017-11-20T06:57:09.349Z,19.98
2017-11-20T06:59:38.342Z,20.27
2017-11-20T07:02:07.145Z,20.00
2017-11-20T07:04:35.787Z,21.12
2017-11-20T07:07:03.778Z,20.58
2017-11-20T07:09:31.793Z,18.30
2017-11-20T07:11:59.783Z,17.70
2017-11-20T07:14:27.778Z,21.37
2017-11-20T07:16:55.769Z,21.10
2017-11-20T07:19:24.555Z,19.33
2017-11-20T07:21:53.395Z,20.52
2017-11-20T07:24:21.419Z,21.15
2017-11-20T07:27:04.884Z,18.27
2017-11-20T07:29:44.538Z,18.92
2017-11-20T07:32:12.570Z,19.17
2017-11-20T07:34:52.996Z,18.85
2017-11-20T07:37:32.728Z,18.90
2017-11-20T07:40:12.486Z,18.55
2017-11-20T07:42:40.511Z,20.33
2017-11-20T07:45:08.523Z,20.30
2017-11-20T07:47:36.560Z,18.77
2017-11-20T07:50:04.606Z,19.50
2017-11-20T07:52:32.627Z,20.62
2017-11-20T07:55:00.668Z,19.20
2017-11-20T07:57:28.674Z,19.25
2017-11-20T07:59:56.671Z,19.25
2017-11-20T08:02:24.703Z,17.30
2017-11-20T08:04:52.714Z,17.33
2017-11-20T08:07:20.738Z,18.47
2017-11-20T08:09:48.785Z,15.27
2017-11-20T08:12:16.792Z,17.20
2017-11-20T08:14:44.799Z,16.53
2017-11-20T08:17:12.839Z,14.80
2017-11-20T08:19:40.871Z,15.77
2017-11-20T08:22:08.890Z,14.50
2017-11-20T08:24:36.897Z,18.20
2017-11-20T08:27:05.702Z,17.23
2017-11-20T08:29:33.700Z,15.23
2017-11-20T08:32:01.718Z,13.20
2017-11-20T08:34:30.519Z,13.07
2017-11-20T08:36:58.540Z,13.53
2017-11-20T08:39:26.574Z,13.03
2017-11-20T08:41:54.610Z,11.87
2017-11-20T08:44:22.642Z,11.50
2017-11-20T08:46:50.695Z,12.63
2017-11-20T08:49:18.729Z,10.93
2017-11-20T08:51:47.531Z,11.40
2017-11-20T08:54:16.373Z,10.93
2017-11-20T08:56:44.390Z,11.60
2017-11-20T08:59:13.186Z,10.97
2017-11-20T09:01:41.205Z,10.37
2017-11-20T09:04:09.304Z,9.50
2017-11-20T09:06:38.142Z,9.50
2017-11-20T09:09:06.161Z,10.60
2017-11-20T09:11:34.186Z,9.00
2017-11-20T09:14:02.257Z,10.77
2017-11-20T09:16:30.480Z,10.03
2017-11-20T09:18:58.598Z,9.30
2017-11-20T09:21:26.642Z,11.07
2017-11-20T09:23:55.446Z,11.37
2017-11-20T09:26:23.481Z,12.60
2017-11-20T09:28:51.496Z,16.87
2017-11-20T09:31:19.491Z,15.33
2017-11-20T09:33:47.561Z,16.17
2017-11-20T09:36:15.586Z,18.90
2017-11-20T09:38:44.362Z,19.90
2017-11-20T09:41:13.173Z,24.00
2017-11-20T09:43:41.223Z,20.57
2017-11-20T09:46:10.071Z,20.30
2017-11-20T09:48:38.131Z,23.80
2017-11-20T09:51:06.253Z,29.43
2017-11-20T09:53:34.338Z,35.20
2017-11-20T09:56:03.202Z,35.47
2017-11-20T09:58:31.304Z,30.30
2017-11-20T10:01:00.174Z,30.17
2017-11-20T10:03:28.285Z,27.57
2017-11-20T10:05:56.405Z,24.07
2017-11-20T10:08:24.508Z,25.97
2017-11-20T10:10:53.363Z,26.53
2017-11-20T10:13:21.430Z,26.30
2017-11-20T10:15:49.553Z,26.97
2017-11-20T10:18:18.391Z,27.43
2017-11-20T10:20:46.511Z,29.90
2017-11-20T10:23:15.363Z,28.73
2017-11-20T10:25:43.466Z,27.33
2017-11-20T10:28:12.319Z,26.83
2017-11-20T10:30:40.420Z,29.67
2017-11-20T10:33:09.255Z,27.30
2017-11-20T10:35:37.349Z,28.20
2017-11-20T10:38:05.451Z,27.50
2017-11-20T10:40:33.706Z,26.83
2017-11-20T10:43:01.829Z,28.47
2017-11-20T10:45:29.942Z,28.83
2017-11-20T10:47:58.043Z,27.77
2017-11-20T10:50:26.555Z,30.43
2017-11-20T10:52:54.654Z,25.50
2017-11-20T10:55:22.710Z,25.97
2017-11-20T10:57:50.862Z,21.03
2017-11-20T11:00:19.706Z,21.93
2017-11-20T11:02:47.813Z,21.33
2017-11-20T11:05:16.664Z,21.57
2017-11-20T11:07:44.762Z,19.00
2017-11-20T11:10:12.824Z,20.57
2017-11-20T11:12:40.938Z,19.20
2017-11-20T11:15:09.056Z,22.07
2017-11-20T11:17:41.121Z,20.57
2017-11-20T11:20:09.207Z,20.90
2017-11-20T11:22:37.311Z,20.03
2017-11-20T11:25:06.174Z,21.43
2017-11-20T11:27:34.256Z,20.00
2017-11-20T11:30:02.342Z,19.60
2017-11-20T11:32:31.211Z,21.00
2017-11-20T11:34:59.267Z,26.17
2017-11-20T11:37:27.323Z,25.27
2017-11-20T11:39:55.396Z,26.93
2017-11-20T11:42:23.503Z,23.37
2017-11-20T11:44:51.585Z,23.47
2017-11-20T11:47:20.458Z,23.87
2017-11-20T11:49:48.546Z,23.07
2017-11-20T11:52:17.418Z,22.47
2017-11-20T11:54:45.530Z,21.80
2017-11-20T11:57:13.650Z,23.60
2017-11-20T11:59:41.750Z,24.03
2017-11-20T12:02:09.855Z,26.50
2017-11-20T12:04:37.948Z,25.90
2017-11-20T12:07:06.010Z,23.77
2017-11-20T12:09:34.090Z,24.17
2017-11-20T12:12:02.202Z,24.00
2017-11-20T12:14:30.282Z,26.33
2017-11-20T12:16:58.363Z,25.77
2017-11-20T12:19:27.239Z,27.43
2017-11-20T12:21:59.177Z,28.37
2017-11-20T12:24:27.286Z,27.30
2017-11-20T12:26:56.169Z,28.70
2017-11-20T12:29:24.231Z,29.13
2017-11-20T12:31:52.328Z,28.03
2017-11-20T12:34:21.202Z,27.43
2017-11-20T12:36:49.410Z,29.03
2017-11-20T12:39:17.507Z,26.80
2017-11-20T12:41:45.570Z,29.83
2017-11-20T12:44:13.656Z,27.17
2017-11-20T12:46:41.719Z,28.47
2017-11-20T12:49:09.802Z,26.87
2017-11-20T12:51:37.891Z,30.63
2017-11-20T12:54:05.938Z,27.80
2017-11-20T12:56:34.035Z,28.87
2017-11-20T12:59:02.063Z,27.10
2017-11-20T13:01:30.142Z,29.30
2017-11-20T13:03:58.218Z,27.43
2017-11-20T13:06:26.322Z,27.53
2017-11-20T13:08:54.407Z,26.47
2017-11-20T13:11:22.502Z,25.50
2017-11-20T13:13:51.393Z,25.90
2017-11-20T13:16:20.270Z,26.80
2017-11-20T13:18:48.369Z,24.33
2017-11-20T13:21:16.454Z,26.80
2017-11-20T13:23:44.566Z,24.33
2017-11-20T13:26:12.683Z,24.83
2017-11-20T13:28:40.770Z,27.97
2017-11-20T13:31:08.869Z,28.10
2017-11-20T13:33:36.959Z,27.93
2017-11-20T13:36:05.038Z,28.03
2017-11-20T13:38:33.179Z,29.10
2017-11-20T13:41:01.266Z,34.83
2017-11-20T13:43:29.435Z,38.07
2017-11-20T13:45:57.554Z,41.27
2017-11-20T13:48:26.432Z,43.30
2017-11-20T13:50:55.292Z,40.80
2017-11-20T13:53:23.399Z,43.60
2017-11-20T13:55:52.251Z,43.37
2017-11-20T13:58:20.362Z,44.70
2017-11-20T14:00:49.262Z,45.80
2017-11-20T14:03:18.146Z,45.73
2017-11-20T14:05:47.030Z,48.90
2017-11-20T14:08:15.882Z,47.33
2017-11-20T14:10:43.992Z,51.50
2017-11-20T14:13:12.078Z,49.70
2017-11-20T14:15:40.939Z,49.00
2017-11-20T14:18:09.126Z,48.80
2017-11-20T14:20:37.989Z,50.33
2017-11-20T14:23:06.109Z,48.97
2017-11-20T14:25:34.966Z,47.20
2017-11-20T14:28:03.067Z,50.60
2017-11-20T14:30:31.906Z,50.83
2017-11-20T14:32:59.998Z,48.97
2017-11-20T14:35:28.098Z,49.80
2017-11-20T14:37:56.984Z,47.60
2017-11-20T14:40:25.870Z,53.30
2017-11-20T14:42:53.963Z,51.53
2017-11-20T14:45:22.050Z,52.63
2017-11-20T14:50:46.193Z,54.00
2017-11-20T14:53:24.870Z,52.47
2017-11-20T14:55:52.936Z,56.10
2017-11-20T14:58:20.992Z,56.10
2017-11-20T15:00:49.901Z,53.30
2017-11-20T15:03:18.015Z,56.60
2017-11-20T15:05:46.189Z,54.87
2017-11-20T15:08:14.354Z,62.53
2017-11-20T15:10:42.531Z,57.47
2017-11-20T15:13:10.647Z,60.73
2017-11-20T15:15:39.506Z,58.97
2017-11-20T15:18:07.631Z,84.40
2017-11-20T15:20:36.302Z,60.37
2017-11-20T15:23:04.418Z,65.87
2017-11-20T15:25:32.547Z,67.10
2017-11-20T15:28:01.398Z,69.30
2017-11-20T15:30:29.498Z,69.17
2017-11-20T15:32:58.400Z,67.60
2017-11-20T15:35:27.284Z,66.20
2017-11-20T15:37:56.124Z,72.20
2017-11-20T15:40:24.591Z,63.10
2017-11-20T15:42:52.671Z,73.67
2017-11-20T15:45:20.744Z,74.23
2017-11-20T15:47:48.770Z,79.70
2017-11-20T15:50:17.545Z,76.30
2017-11-20T15:52:46.333Z,72.33
2017-11-20T15:55:14.354Z,71.93
2017-11-20T15:57:42.413Z,80.40
2017-11-20T16:00:10.538Z,77.30
2017-11-20T16:02:38.546Z,77.30
2017-11-20T16:05:06.868Z,84.60
2017-11-20T16:07:34.932Z,83.83
2017-11-20T16:10:03.514Z,80.43
2017-11-20T16:12:31.527Z,92.17
2017-11-20T16:15:00.334Z,99.10
2017-11-20T16:17:28.668Z,95.07
2017-11-20T16:19:56.717Z,89.67
2017-11-20T16:22:24.769Z,104.73
2017-11-20T16:24:52.871Z,98.57
2017-11-20T16:27:20.879Z,108.77
2017-11-20T16:29:48.895Z,96.30
2017-11-20T16:32:16.903Z,93.80
2017-11-20T16:34:44.923Z,85.70
2017-11-20T16:37:12.993Z,83.60
2017-11-20T16:39:41.059Z,89.40
2017-11-20T16:42:09.125Z,90.53
2017-11-20T16:44:37.138Z,86.17
2017-11-20T16:47:05.212Z,84.07
2017-11-20T16:49:33.270Z,84.33
2017-11-20T16:52:01.322Z,81.70
2017-11-20T16:54:29.402Z,87.20
2017-11-20T16:57:10.373Z,83.53
2017-11-20T16:59:39.077Z,88.07
2017-11-20T17:02:33.591Z,80.70
2017-11-20T17:05:01.874Z,80.87
2017-11-20T17:07:30.696Z,88.83
2017-11-20T17:09:58.852Z,81.37
2017-11-20T17:12:27.838Z,83.47
2017-11-20T17:14:56.766Z,84.80
2017-11-20T17:17:24.768Z,82.43
2017-11-20T17:19:52.810Z,86.80
2017-11-20T17:22:20.838Z,86.00
2017-11-20T17:24:48.891Z,85.27
2017-11-20T17:27:16.946Z,74.57
2017-11-20T17:29:44.954Z,73.30
2017-11-20T17:32:13.102Z,77.53
2017-11-20T17:34:41.964Z,74.03
2017-11-20T17:37:09.966Z,76.70
2017-11-20T17:39:37.989Z,77.30
2017-11-20T17:42:06.031Z,74.03
2017-11-20T17:44:34.070Z,79.23
2017-11-20T17:47:03.037Z,76.97
2017-11-20T17:49:31.798Z,57.20
2017-11-20T17:52:00.597Z,64.13
2017-11-20T17:54:30.442Z,67.40
2017-11-20T17:56:58.494Z,57.53
2017-11-20T17:59:28.233Z,46.13
2017-11-20T18:01:56.501Z,46.13
2017-11-20T18:04:24.570Z,40.33
2017-11-20T18:06:52.572Z,39.73
2017-11-20T18:09:20.591Z,37.20
2017-11-20T18:11:48.649Z,36.50
2017-11-20T18:14:17.495Z,36.80
2017-11-20T18:16:45.630Z,34.93
2017-11-20T18:19:13.698Z,32.17
2017-11-20T18:21:41.792Z,31.23
2017-11-20T18:24:09.843Z,31.10
2017-11-20T18:26:37.862Z,35.00
2017-11-20T18:29:06.013Z,32.30
2017-11-20T18:31:34.047Z,33.73
2017-11-20T18:34:02.092Z,31.13
2017-11-20T18:36:30.223Z,31.93
2017-11-20T18:38:58.316Z,28.37
2017-11-20T18:41:26.430Z,27.13
2017-11-20T18:43:55.311Z,27.87
2017-11-20T18:46:24.162Z,28.30
2017-11-20T18:48:52.242Z,25.30
2017-11-20T18:51:20.289Z,25.80
2017-11-20T18:53:48.362Z,25.67
2017-11-20T18:56:16.489Z,24.53
2017-11-20T18:58:45.450Z,26.27
2017-11-20T19:01:25.470Z,25.97
2017-11-20T19:07:10.634Z,26.83
2017-11-20T19:09:39.512Z,28.37
2017-11-20T19:12:08.338Z,28.50
2017-11-20T19:14:36.431Z,25.47
2017-11-20T19:17:04.446Z,24.13
2017-11-20T19:19:33.260Z,24.30
2017-11-20T19:22:01.356Z,26.27
2017-11-20T19:24:29.465Z,23.53
2017-11-20T19:26:57.549Z,25.70
2017-11-20T19:29:26.439Z,22.57
2017-11-20T19:31:55.222Z,23.50
2017-11-20T19:34:23.264Z,23.30
2017-11-20T19:36:51.349Z,23.77
2017-11-20T19:39:19.414Z,25.47
2017-11-20T19:41:47.444Z,22.93
2017-11-20T19:44:15.477Z,23.60
2017-11-20T19:46:43.501Z,23.60
2017-11-20T19:49:11.537Z,21.90
2017-11-20T19:51:40.335Z,19.27
2017-11-20T19:54:08.498Z,20.20
2017-11-20T19:56:36.548Z,20.70
2017-11-20T19:59:04.599Z,21.23
2017-11-20T20:01:32.618Z,22.20
2017-11-20T20:04:01.455Z,20.70
2017-11-20T20:06:29.486Z,21.77
2017-11-20T20:08:57.484Z,20.50
2017-11-20T20:11:25.539Z,20.87
2017-11-20T20:13:53.700Z,20.60
2017-11-20T20:16:28.962Z,21.00
2017-11-20T20:18:57.014Z,22.60
2017-11-20T20:21:25.056Z,19.48
2017-11-20T20:23:53.870Z,20.80
2017-11-20T20:26:21.943Z,21.45
2017-11-20T20:28:49.970Z,19.87
2017-11-20T20:31:17.999Z,17.70
2017-11-20T20:33:45.993Z,19.20
2017-11-20T20:36:14.026Z,16.97
2017-11-20T20:38:42.062Z,16.60
2017-11-20T20:41:10.110Z,17.35
2017-11-20T20:43:38.137Z,15.20
2017-11-20T20:46:06.225Z,18.25
2017-11-20T20:48:34.283Z,16.75
2017-11-20T20:51:02.297Z,15.10
2017-11-20T20:53:30.304Z,14.20
2017-11-20T20:55:59.138Z,13.65
2017-11-20T20:58:27.143Z,15.10
2017-11-20T21:00:55.233Z,15.95
2017-11-20T21:03:23.286Z,14.32
2017-11-20T21:05:51.326Z,14.90
2017-11-20T21:08:19.340Z,13.40
2017-11-20T21:10:53.587Z,13.15
2017-11-20T21:13:21.589Z,13.52
2017-11-20T21:15:49.611Z,13.30
2017-11-20T21:18:18.455Z,13.10
2017-11-20T21:20:46.487Z,15.07
2017-11-20T21:23:14.498Z,13.40
2017-11-20T21:25:42.543Z,12.93
2017-11-20T21:28:10.563Z,12.90
2017-11-20T21:30:38.596Z,13.38
2017-11-20T21:33:06.645Z,14.75
2017-11-20T21:35:34.666Z,12.30
2017-11-20T21:38:02.685Z,13.40
2017-11-20T21:40:30.739Z,12.15
2017-11-20T21:42:59.536Z,12.75
2017-11-20T21:45:27.572Z,12.30
2017-11-20T21:47:55.589Z,11.38
2017-11-20T21:50:23.646Z,11.75
2017-11-20T21:52:51.682Z,12.30
2017-11-20T21:55:19.711Z,12.65
2017-11-20T21:57:47.778Z,12.13
2017-11-20T22:00:15.889Z,12.75
2017-11-20T22:02:43.962Z,11.50
2017-11-20T22:05:12.066Z,12.02
2017-11-20T22:07:40.898Z,12.45
2017-11-20T22:10:08.944Z,12.25
2017-11-20T22:15:40.915Z,10.75
2017-11-20T22:18:09.482Z,12.98
2017-11-20T22:20:37.794Z,11.98
2017-11-20T22:23:06.884Z,11.23
2017-11-20T22:25:34.953Z,10.90
2017-11-20T22:28:03.009Z,10.50
2017-11-20T22:30:31.846Z,9.65
2017-11-20T22:32:59.905Z,10.35
2017-11-20T22:35:27.926Z,10.30
2017-11-20T22:37:55.982Z,11.12
2017-11-20T22:40:24.012Z,11.02
2017-11-20T22:42:52.075Z,9.20
2017-11-20T22:45:20.119Z,9.18
2017-11-20T22:47:48.950Z,9.13
2017-11-20T22:50:16.957Z,9.25
2017-11-20T22:52:45.011Z,9.77
2017-11-20T22:55:13.019Z,8.82
2017-11-20T22:57:41.857Z,10.10
2017-11-20T23:00:09.889Z,9.05
2017-11-20T23:02:38.677Z,10.32
2017-11-20T23:05:07.346Z,10.27
2017-11-20T23:07:35.291Z,12.00
2017-11-20T23:10:03.228Z,11.57
2017-11-20T23:12:31.254Z,11.10
2017-11-20T23:14:59.226Z,12.07
2017-11-20T23:17:27.185Z,11.35
2017-11-20T23:19:55.053Z,11.65
2017-11-20T23:22:23.028Z,11.38
2017-11-20T23:24:50.897Z,11.90
2017-11-20T23:27:18.803Z,12.85
2017-11-20T23:29:46.738Z,10.38
2017-11-20T23:32:14.585Z,11.02
2017-11-20T23:34:42.422Z,11.70
2017-11-20T23:37:10.281Z,10.32
2017-11-20T23:39:38.120Z,11.38
2017-11-20T23:42:06.763Z,10.80
2017-11-20T23:44:34.597Z,10.73
2017-11-20T23:47:02.487Z,10.35
2017-11-20T23:49:30.382Z,10.70
2017-11-20T23:51:58.289Z,10.75
2017-11-20T23:54:37.897Z,9.40
2017-11-20T23:57:05.774Z,10.13
2017-11-20T23:59:34.468Z,9.57
